TimeMST,TemperatureF,Dew PointF,Humidity,Sea Level PressureIn,VisibilityMPH,Wind Direction,Wind SpeedMPH,Gust SpeedMPH,PrecipitationIn,Events,Conditions,WindDirDegrees,DateUTC
12:01 AM,21.2,8.6,58,30.22,10.0,West,11.5,17.3,N/A,,Clear,260,2013-11-18 07:01:00
12:21 AM,23.0,6.8,50,30.21,10.0,WSW,10.4,20.7,N/A,,Clear,250,2013-11-18 07:21:00
12:41 AM,23.0,6.8,50,30.21,10.0,West,10.4,18.4,N/A,,Clear,280,2013-11-18 07:41:00
1:01 AM,23.0,6.8,50,30.22,10.0,West,9.2,18.4,N/A,,Clear,260,2013-11-18 08:01:00
1:21 AM,23.0,6.8,50,30.22,10.0,West,15.0,19.6,N/A,,Clear,280,2013-11-18 08:21:00
1:41 AM,24.8,5.0,43,30.21,10.0,WNW,15.0,23.0,N/A,,Clear,290,2013-11-18 08:41:00
2:01 AM,24.8,5.0,43,30.21,10.0,West,17.3,28.8,N/A,,Clear,280,2013-11-18 09:01:00
2:21 AM,26.6,3.2,37,30.22,10.0,West,18.4,28.8,N/A,,Clear,280,2013-11-18 09:21:00
2:41 AM,26.6,3.2,37,30.22,10.0,West,18.4,29.9,N/A,,Clear,280,2013-11-18 09:41:00
3:01 AM,26.6,1.4,34,30.22,10.0,West,15.0,26.5,N/A,,Clear,270,2013-11-18 10:01:00
3:21 AM,26.6,1.4,34,30.23,10.0,West,17.3,26.5,N/A,,Clear,280,2013-11-18 10:21:00
3:41 AM,26.6,3.2,37,30.23,10.0,West,17.3,25.3,N/A,,Clear,280,2013-11-18 10:41:00
4:01 AM,26.6,1.4,34,30.23,10.0,West,15.0,29.9,N/A,,Clear,280,2013-11-18 11:01:00
4:21 AM,26.6,1.4,34,30.24,10.0,West,16.1,27.6,N/A,,Clear,270,2013-11-18 11:21:00
4:41 AM,24.8,1.4,36,30.24,10.0,West,15.0,25.3,N/A,,Clear,270,2013-11-18 11:41:00
4:59 AM,26.6,1.4,34,30.26,10.0,West,15.0,25.3,N/A,,Clear,280,2013-11-18 11:59:00
5:21 AM,26.6,-0.4,31,30.26,10.0,West,13.8,19.6,N/A,,Clear,280,2013-11-18 12:21:00
5:41 AM,26.6,-0.4,31,30.26,10.0,West,12.7,20.7,N/A,,Clear,280,2013-11-18 12:41:00
6:00 AM,26.6,1.4,34,30.27,10.0,West,12.7,20.7,N/A,,Clear,280,2013-11-18 13:00:00
6:21 AM,26.6,-0.4,31,30.28,10.0,WNW,12.7,24.2,N/A,,Clear,290,2013-11-18 13:21:00
6:41 AM,26.6,-0.4,31,30.28,10.0,West,12.7,20.7,N/A,,Clear,280,2013-11-18 13:41:00
7:01 AM,28.4,-4.0,25,30.29,10.0,WNW,10.4,19.6,N/A,,Clear,290,2013-11-18 14:01:00
7:21 AM,28.4,-5.8,23,30.30,10.0,WNW,11.5,18.4,N/A,,Clear,290,2013-11-18 14:21:00
7:41 AM,28.4,-5.8,23,30.32,10.0,WNW,11.5,20.7,N/A,,Clear,290,2013-11-18 14:41:00
8:01 AM,30.2,-7.6,19,30.32,10.0,WNW,9.2,16.1,N/A,,Clear,290,2013-11-18 15:01:00
8:21 AM,30.2,-7.6,19,30.33,10.0,WNW,8.1,-,N/A,,Clear,290,2013-11-18 15:21:00
8:40 AM,32.0,-9.4,17,30.33,10.0,WNW,9.2,-,N/A,,Clear,300,2013-11-18 15:40:00
9:01 AM,32.0,-9.4,17,30.34,10.0,WNW,8.1,-,N/A,,Clear,290,2013-11-18 16:01:00
9:21 AM,33.8,-7.6,17,30.35,10.0,WNW,9.2,17.3,N/A,,Clear,300,2013-11-18 16:21:00
9:41 AM,33.8,-9.4,15,30.36,10.0,WNW,5.8,-,N/A,,Clear,300,2013-11-18 16:41:00
10:01 AM,35.6,-7.6,16,30.36,10.0,WNW,8.1,-,N/A,,Clear,290,2013-11-18 17:01:00
10:21 AM,37.4,-4.0,17,30.36,10.0,WNW,9.2,-,N/A,,Clear,300,2013-11-18 17:21:00
10:41 AM,37.4,-2.2,19,30.36,10.0,NW,8.1,-,N/A,,Clear,310,2013-11-18 17:41:00
11:00 AM,37.4,-0.4,20,30.36,10.0,NNW,6.9,17.3,N/A,,Clear,340,2013-11-18 18:00:00
11:21 AM,39.2,-0.4,19,30.35,10.0,NNW,8.1,-,N/A,,Clear,340,2013-11-18 18:21:00
11:41 AM,41.0,-0.4,18,30.35,10.0,NNW,8.1,-,N/A,,Clear,330,2013-11-18 18:41:00
12:01 PM,41.0,-0.4,18,30.34,10.0,NNW,5.8,-,N/A,,Clear,330,2013-11-18 19:01:00
12:21 PM,41.0,1.4,19,30.33,10.0,North,9.2,-,N/A,,Clear,350,2013-11-18 19:21:00
12:41 PM,41.0,1.4,19,30.33,10.0,NW,8.1,-,N/A,,Clear,310,2013-11-18 19:41:00
1:01 PM,42.8,1.4,18,30.33,10.0,WNW,8.1,-,N/A,,Clear,290,2013-11-18 20:01:00
1:21 PM,42.8,3.2,19,30.32,10.0,West,3.5,-,N/A,,Clear,270,2013-11-18 20:21:00
1:41 PM,41.0,3.2,21,30.31,10.0,NW,4.6,-,N/A,,Clear,310,2013-11-18 20:41:00
2:01 PM,42.8,3.2,19,30.31,10.0,Calm,Calm,-,N/A,,Clear,0,2013-11-18 21:01:00
2:20 PM,41.0,5.0,23,30.31,10.0,WSW,3.5,-,N/A,,Clear,240,2013-11-18 21:20:00
2:41 PM,42.8,5.0,21,30.31,10.0,WSW,3.5,-,N/A,,Clear,250,2013-11-18 21:41:00
3:01 PM,41.0,5.0,23,30.30,10.0,West,4.6,-,N/A,,Clear,270,2013-11-18 22:01:00
3:21 PM,39.2,1.4,21,30.30,10.0,WSW,4.6,-,N/A,,Clear,240,2013-11-18 22:21:00
3:41 PM,39.2,3.2,22,30.30,10.0,West,5.8,-,N/A,,Clear,260,2013-11-18 22:41:00
4:01 PM,37.4,5.0,26,30.30,10.0,WSW,4.6,-,N/A,,Clear,240,2013-11-18 23:01:00
4:21 PM,37.4,3.2,24,30.30,10.0,WSW,6.9,-,N/A,,Clear,250,2013-11-18 23:21:00
4:41 PM,35.6,5.0,28,30.30,10.0,WSW,6.9,-,N/A,,Clear,250,2013-11-18 23:41:00
5:01 PM,33.8,5.0,30,30.29,10.0,WSW,5.8,-,N/A,,Clear,240,2013-11-19 00:01:00
5:21 PM,33.8,3.2,28,30.30,10.0,SW,4.6,-,N/A,,Clear,230,2013-11-19 00:21:00
5:41 PM,33.8,5.0,30,30.30,10.0,SW,4.6,-,N/A,,Clear,230,2013-11-19 00:41:00
6:01 PM,32.0,6.8,35,30.30,10.0,WSW,4.6,-,N/A,,Clear,240,2013-11-19 01:01:00
6:21 PM,32.0,5.0,32,30.30,10.0,WSW,4.6,-,N/A,,Clear,240,2013-11-19 01:21:00
6:41 PM,32.0,5.0,32,30.30,10.0,WSW,4.6,-,N/A,,Clear,240,2013-11-19 01:41:00
7:01 PM,32.0,5.0,32,30.29,10.0,WSW,6.9,-,N/A,,Clear,250,2013-11-19 02:01:00
7:21 PM,32.0,6.8,35,30.29,10.0,WSW,6.9,-,N/A,,Clear,250,2013-11-19 02:21:00
7:41 PM,32.0,6.8,35,30.30,10.0,WSW,6.9,-,N/A,,Clear,250,2013-11-19 02:41:00
8:01 PM,32.0,6.8,35,30.29,10.0,WSW,5.8,-,N/A,,Clear,240,2013-11-19 03:01:00
8:21 PM,32.0,6.8,35,30.29,10.0,WSW,6.9,-,N/A,,Clear,250,2013-11-19 03:21:00
8:41 PM,32.0,6.8,35,30.28,10.0,WSW,5.8,-,N/A,,Clear,240,2013-11-19 03:41:00
9:01 PM,32.0,6.8,35,30.29,10.0,SW,6.9,-,N/A,,Clear,230,2013-11-19 04:01:00
9:21 PM,32.0,8.6,38,30.28,10.0,WSW,6.9,-,N/A,,Clear,240,2013-11-19 04:21:00
9:41 PM,32.0,5.0,32,30.28,10.0,SW,6.9,-,N/A,,Clear,230,2013-11-19 04:41:00
10:01 PM,32.0,5.0,32,30.28,10.0,SW,6.9,-,N/A,,Clear,230,2013-11-19 05:01:00
10:21 PM,32.0,5.0,32,30.27,10.0,SW,6.9,-,N/A,,Clear,230,2013-11-19 05:21:00
10:41 PM,32.0,5.0,32,30.27,10.0,SW,6.9,-,N/A,,Clear,230,2013-11-19 05:41:00
11:01 PM,32.0,5.0,32,30.26,10.0,WSW,6.9,-,N/A,,Clear,240,2013-11-19 06:01:00
11:21 PM,30.2,8.6,40,30.26,10.0,WSW,6.9,-,N/A,,Clear,240,2013-11-19 06:21:00
11:41 PM,30.2,10.4,44,30.26,10.0,WSW,6.9,-,N/A,,Clear,240,2013-11-19 06:41:00